Metropolitan Oakland International Airport
KOAK : now visible

Airfield :











YOU CAN JOIN US ON...

 
LOGIN :

Register | Disclaimer

   EN    FR    IT 

 









Legend :    VFR   Marginal VFR   IFR   Intensive IFR   Very Intensive IFR
Visi :
Ceiling :
>= 8 km
>= 3000ft
5 to 8 km
1000 to 3000 ft
1500m to 5 km
500 to 1000 ft
800 to 1500m
200 to 500 ft
< 800m
< 200 ft
Symbols :   Thunderstorms  Fog  Heavy snow  Heavy precipitations  Wind > 20 kt






- Airport Elevation : 9 ft
- IATA code : OAK


KOAK - Metropolitan Oakland International

CURRENT METAR :
  • 141453Z 00000KT 10SM FEW010 BKN034 BKN095 09/07 A3006 RMK AO2 SLP179 T00890067 53025 $

EXPIRED METARs :
  • 141353Z 06008KT 10SM FEW010 FEW095 BKN200 08/06 A3001 RMK AO2 SLP162 T00780061 $
  • 141253Z 08011KT 10SM FEW035 SCT090 08/06 A2999 RMK AO2 SLP154 T00780061 $
  • 141153Z 06009KT 10SM FEW012 BKN040 08/07 A2999 RMK AO2 SLP154 60006 70025 T00780067 10083 20078 53010 $
  • 141053Z 07009KT 10SM FEW012 BKN040 08/07 A2997 RMK AO2 SLP147 T00780067 $

TAF KOAK
Valid from the 14 at 12:00 until the 15 at 18:00 UTC


141134Z 1412/1518 VRB06KT P6SM -SHRA BKN050
FM141900 28012KT P6SM VCSH SCT040 BKN070
FM150400 29008KT P6SM SCT040 BKN070
FM151200 VRB03KT P6SM OVC050
KZOA FIR / North America



MET'MAP, your aeronautical weather chart ! - Copyright ORBIFLY December 2007 - Disclaimer

ORBIFLY MET'MAP TEAM :

Programming & Development : Alexandra Zaïnal
Original concept : Baudouin d'Aumeries
Technical & hardware support : Manuel Goepfert
Assistance : Marc-Olivier Méhu




SOURCES & CREDITS :

   NOAA       Earth
Advisory